Holcombville, New York
Current Conditions -  °F | °C
As of 3:02 AM on Friday 31 Oct 2014 (Local Time) from KGFL Reporting Station
Scattered Clouds Scattered Clouds  
Wind Chill: 30°   Ceiling: Unl
Heat Index: 30°   Visibility: 8mi
Dew Point: 28°   Wind: 0mph
Humidity: 92%   Direction: NA
Pressure: 30.03"   Gusts: NA
Location:  43.7289°N, 73.9027°W
Report Text: KGFL 310702Z AUTO 00000KT 8SM FEW001 SCT055 M01/M02 A3003 RMK AO2 T10111022
Loading
Personal Weather Stations






























Interactive Weather Map
Tropical Storm Tracking
New forecast layout! Learn more

10-Day Weather Forecast

Advertisements
Track Severe Weather on mobile